Time;durP1;ratioP1;P1;durP2;ratioP2;P2;SDS_P1;SDS_P2;PMS_P1;PMS_P2;Temp;Humidity;BMP_temperature;BMP_pressure;BME280_temperature;BME280_humidity;BME280_pressure;Samples;Min_cycle;Max_cycle;Signal;HPM_P1;HPM_P2
2023/12/29 00:00:10;;;;;;;31.63;7.57;;;11.10;99.90;;;11.24;100.00;100495.25;4909894;29;20392;-70
2023/12/29 00:02:39;;;;;;;25.25;6.57;;;11.00;99.90;;;11.27;100.00;100474.03;4894755;29;20059;-68
2023/12/29 00:05:08;;;;;;;21.83;6.57;;;11.00;99.90;;;11.33;100.00;100474.81;4910294;29;20051;-68
2023/12/29 00:07:37;;;;;;;32.85;7.47;;;11.10;99.90;;;11.29;100.00;100465.16;4895512;29;20076;-68
2023/12/29 00:10:07;;;;;;;20.33;6.15;;;11.10;99.90;;;11.29;100.00;100467.81;4895382;29;20044;-67
2023/12/29 00:12:37;;;;;;;24.52;6.82;;;11.10;99.90;;;11.32;100.00;100473.09;4895434;29;20503;-68
2023/12/29 00:15:07;;;;;;;29.65;7.28;;;11.10;99.90;;;11.37;100.00;100465.94;4895269;29;20491;-69
2023/12/29 00:17:37;;;;;;;23.35;6.65;;;11.20;99.90;;;11.42;100.00;100468.53;4895523;29;20045;-71
2023/12/29 00:20:07;;;;;;;27.73;6.38;;;11.10;99.90;;;11.44;100.00;100472.88;4895175;29;20048;-69
2023/12/29 00:22:36;;;;;;;21.65;6.32;;;11.20;99.90;;;11.46;100.00;100460.50;4893723;29;20063;-70
2023/12/29 00:25:05;;;;;;;26.45;6.50;;;11.20;99.90;;;11.44;100.00;100459.66;4895234;29;20076;-68
2023/12/29 00:27:33;;;;;;;24.27;6.68;;;11.20;99.90;;;11.46;100.00;100472.88;4893921;29;20143;-69
2023/12/29 00:30:04;;;;;;;23.10;7.18;;;11.30;99.90;;;11.52;100.00;100455.13;4895449;29;20045;-69
2023/12/29 00:32:33;;;;;;;26.38;6.40;;;11.30;99.90;;;11.47;100.00;100456.09;4894102;29;20092;-71
2023/12/29 00:35:02;;;;;;;24.92;6.18;;;11.30;99.90;;;11.50;100.00;100451.63;4909627;29;20081;-69
2023/12/29 00:37:30;;;;;;;18.95;5.88;;;11.30;99.90;;;11.51;100.00;100463.97;4925549;29;20406;-70
2023/12/29 00:39:59;;;;;;;28.02;6.55;;;11.30;99.90;;;11.55;100.00;100467.44;4895246;29;20048;-70
2023/12/29 00:42:28;;;;;;;21.55;6.32;;;11.30;99.90;;;11.44;100.00;100440.25;4895204;29;20098;-72
2023/12/29 00:44:56;;;;;;;24.30;6.35;;;11.30;99.90;;;11.54;100.00;100461.28;4895469;29;20048;-69
2023/12/29 00:47:26;;;;;;;22.13;6.13;;;11.30;99.90;;;11.54;100.00;100449.78;4909669;29;20131;-69
2023/12/29 00:49:54;;;;;;;26.05;6.90;;;11.30;99.90;;;11.60;100.00;100455.00;4895155;29;20044;-69
2023/12/29 00:52:23;;;;;;;21.88;6.35;;;11.30;99.90;;;11.50;100.00;100448.09;4894962;29;20077;-71
2023/12/29 00:54:51;;;;;;;21.40;5.90;;;11.30;99.90;;;11.61;100.00;100462.06;4895078;29;20506;-69
2023/12/29 00:57:19;;;;;;;21.70;6.63;;;11.30;99.90;;;11.50;100.00;100453.38;4895493;29;20057;-69
2023/12/29 00:59:48;;;;;;;19.55;5.80;;;11.30;99.90;;;11.36;100.00;100428.91;4895200;29;20049;-68
2023/12/29 01:02:17;;;;;;;23.95;6.75;;;11.30;99.90;;;11.48;100.00;100452.53;4894956;29;20103;-71
2023/12/29 01:04:47;;;;;;;22.55;6.68;;;11.30;99.90;;;11.53;100.00;100441.00;4909793;29;20145;-69
2023/12/29 01:07:15;;;;;;;25.75;6.22;;;11.30;99.90;;;11.55;100.00;100433.03;4895597;29;20064;-69
2023/12/29 01:09:44;;;;;;;27.08;6.57;;;11.30;99.90;;;11.48;100.00;100437.53;4909620;29;20044;-71
2023/12/29 01:12:12;;;;;;;21.88;6.22;;;11.20;99.90;;;11.44;100.00;100449.06;4896633;29;20047;-69
2023/12/29 01:14:41;;;;;;;25.23;6.47;;;11.20;99.90;;;11.38;100.00;100425.31;4898515;29;20052;-72
2023/12/29 01:17:09;;;;;;;22.65;6.95;;;11.20;99.90;;;11.44;100.00;100435.81;4898502;29;20040;-69
2023/12/29 01:19:37;;;;;;;27.88;7.15;;;11.20;99.90;;;11.44;100.00;100434.97;4897207;29;20060;-73
2023/12/29 01:22:07;;;;;;;24.92;6.50;;;11.20;99.90;;;11.45;100.00;100442.00;4897059;29;20061;-70
2023/12/29 01:24:36;;;;;;;28.60;7.03;;;11.20;99.90;;;11.43;100.00;100447.31;4913165;29;20155;-72
2023/12/29 01:27:13;;;;;;;22.65;6.15;;;11.20;99.90;;;11.46;100.00;100449.91;4898461;29;20565;-69
2023/12/29 01:29:42;;;;;;;22.73;6.40;;;11.20;99.90;;;11.51;100.00;100453.38;4898304;29;20167;-69
2023/12/29 01:32:11;;;;;;;23.02;6.55;;;11.30;99.90;;;11.56;100.00;100442.69;4896839;29;20507;-70
2023/12/29 01:34:39;;;;;;;20.75;6.28;;;11.30;99.90;;;11.54;100.00;100449.78;4912991;29;20059;-69
2023/12/29 01:37:09;;;;;;;23.75;7.20;;;11.30;99.90;;;11.61;100.00;100436.44;4898106;29;20049;-71
2023/12/29 01:39:39;;;;;;;20.42;6.10;;;11.40;99.90;;;11.62;100.00;100447.91;4928501;29;20084;-72
2023/12/29 01:42:10;;;;;;;21.30;6.00;;;11.40;99.90;;;11.56;100.00;100435.63;4897866;29;20052;-70
2023/12/29 01:44:39;;;;;;;;;;;11.40;99.90;;;11.61;100.00;100435.56;4898389;29;20052;-70
2023/12/29 01:47:16;;;;;;;25.17;7.15;;;11.30;99.90;;;11.47;100.00;100445.50;4897757;29;19927;-69
2023/12/29 01:49:46;;;;;;;21.85;6.30;;;11.30;99.90;;;11.50;100.00;100440.13;4896655;29;20056;-70
2023/12/29 01:52:17;;;;;;;;;;;11.30;99.90;;;11.46;100.00;100434.03;4913036;29;20134;-69
2023/12/29 01:54:47;;;;;;;;;;;11.30;99.90;;;11.62;100.00;100451.44;4898244;29;20289;-70
2023/12/29 01:57:16;;;;;;;23.42;6.53;;;11.30;99.90;;;11.51;100.00;100458.69;4897733;29;19930;-70
2023/12/29 01:59:45;;;;;;;25.17;6.38;;;11.30;99.90;;;11.48;100.00;100439.28;4912431;29;20078;-70
2023/12/29 02:02:15;;;;;;;24.65;6.95;;;11.30;99.90;;;11.54;100.00;100448.03;4928105;29;20049;-71
2023/12/29 02:04:43;;;;;;;19.63;6.63;;;11.30;99.90;;;11.46;100.00;100452.56;4897771;29;20070;-71
2023/12/29 02:07:12;;;;;;;25.45;6.78;;;11.20;99.90;;;11.54;100.00;100455.09;4897669;29;20048;-68
2023/12/29 02:09:42;;;;;;;21.05;6.57;;;11.30;99.90;;;11.57;100.00;100461.25;4897526;29;20049;-69
2023/12/29 02:12:11;;;;;;;22.60;6.47;;;11.30;99.90;;;11.49;100.00;100471.06;4911837;29;20399;-69
2023/12/29 02:14:39;;;;;;;26.20;6.82;;;11.30;99.90;;;11.50;100.00;100461.31;4911971;29;20135;-69
2023/12/29 02:17:16;;;;;;;27.60;7.23;;;11.30;99.90;;;11.50;100.00;100467.50;4912016;29;20052;-69
2023/12/29 02:19:49;;;;;;;31.42;7.32;;;11.30;99.90;;;11.48;100.00;100479.00;4927807;29;20411;-69
2023/12/29 02:22:18;;;;;;;28.70;7.60;;;11.30;99.90;;;11.56;100.00;100472.72;4897085;29;20053;-69
2023/12/29 02:24:48;;;;;;;29.30;7.38;;;11.30;99.90;;;11.58;100.00;100484.16;4912120;29;20151;-69
2023/12/29 02:27:29;;;;;;;35.08;8.05;;;11.30;99.90;;;11.57;100.00;100481.56;4897619;29;20073;-69
2023/12/29 02:30:11;;;;;;;28.27;7.82;;;11.30;99.90;;;11.50;100.00;100462.22;4897383;29;20049;-70
2023/12/29 02:32:44;;;;;;;36.38;8.85;;;11.40;99.90;;;11.70;100.00;100478.72;4897345;29;20059;-70
2023/12/29 02:35:17;;;;;;;37.08;8.07;;;11.40;99.90;;;11.66;100.00;100492.91;4897645;29;20045;-69
2023/12/29 02:37:48;;;;;;;34.38;9.20;;;11.40;99.90;;;11.18;100.00;100395.63;4896053;29;20049;-69
2023/12/29 02:40:19;;;;;;;29.95;6.93;;;11.40;99.90;;;11.72;100.00;100479.59;4897249;29;20090;-70
2023/12/29 02:42:48;;;;;;;42.45;8.48;;;11.50;99.90;;;11.73;100.00;100483.97;4897115;29;20048;-69
2023/12/29 02:45:17;;;;;;;49.97;9.43;;;11.50;99.90;;;11.75;100.00;100478.63;4896862;29;20161;-69
2023/12/29 02:47:46;;;;;;;46.28;8.93;;;11.50;99.90;;;11.82;100.00;100495.31;4896803;29;20080;-71
2023/12/29 02:50:16;;;;;;;54.88;10.10;;;11.60;99.90;;;11.94;100.00;100487.19;4897089;29;20040;-70
2023/12/29 02:52:44;;;;;;;54.55;10.52;;;11.70;99.90;;;11.81;100.00;100446.75;4896896;29;20135;-72
2023/12/29 02:55:13;;;;;;;56.78;10.85;;;11.70;99.90;;;11.94;100.00;100485.41;4896693;29;20045;-69
2023/12/29 02:57:43;;;;;;;58.28;11.02;;;11.70;99.90;;;11.98;100.00;100484.44;4895282;29;20565;-69
2023/12/29 03:00:13;;;;;;;61.42;11.63;;;11.70;99.90;;;11.95;100.00;100483.63;4896860;29;20044;-69
2023/12/29 03:02:42;;;;;;;61.43;11.87;;;11.70;99.90;;;12.07;100.00;100475.47;4896739;29;20044;-69
2023/12/29 03:05:10;;;;;;;66.28;11.00;;;11.80;99.90;;;11.97;100.00;100455.31;4896473;29;20055;-68
2023/12/29 03:07:39;;;;;;;77.28;13.38;;;11.80;99.90;;;12.05;100.00;100451.66;4926860;29;20049;-69
2023/12/29 03:10:09;;;;;;;65.22;13.55;;;11.80;99.90;;;12.13;100.00;100460.34;4896703;29;20060;-70
2023/12/29 03:12:38;;;;;;;68.15;12.60;;;11.80;99.90;;;12.13;100.00;100455.06;4896644;29;20104;-69
2023/12/29 03:15:08;;;;;;;76.38;13.32;;;11.90;99.90;;;12.16;100.00;100460.28;4895288;29;20099;-70
2023/12/29 03:17:37;;;;;;;71.72;12.35;;;11.90;99.90;;;12.13;100.00;100443.56;4896503;29;20048;-69
2023/12/29 03:20:07;;;;;;;73.82;13.88;;;11.90;99.90;;;12.34;100.00;100453.78;4896599;29;20068;-70
2023/12/29 03:22:36;;;;;;;69.55;12.07;;;12.00;99.90;;;12.31;100.00;100453.84;4896526;29;20056;-69
2023/12/29 03:25:06;;;;;;;63.60;11.63;;;12.10;99.90;;;12.26;100.00;100445.97;4896066;29;20135;-70
2023/12/29 03:27:34;;;;;;;61.22;12.65;;;12.00;99.90;;;12.26;100.00;100443.31;4895016;29;20045;-69
2023/12/29 03:30:03;;;;;;;55.72;11.02;;;12.00;99.90;;;12.18;100.00;100424.00;4894956;29;20076;-69
2023/12/29 03:32:33;;;;;;;55.22;10.10;;;11.90;99.90;;;12.07;100.00;100444.56;4896139;29;20048;-69
2023/12/29 03:35:01;;;;;;;67.05;11.35;;;11.80;99.90;;;12.09;100.00;100444.50;4895440;29;20044;-70
2023/12/29 03:37:30;;;;;;;65.75;12.77;;;11.80;99.90;;;12.02;100.00;100457.00;4895818;29;20049;-69
2023/12/29 03:39:58;;;;;;;72.13;12.88;;;11.70;99.90;;;11.98;100.00;100459.75;4896121;29;20044;-69
2023/12/29 03:42:27;;;;;;;58.25;10.93;;;11.70;99.90;;;11.94;100.00;100450.97;4895711;29;20063;-68
2023/12/29 03:44:57;;;;;;;74.60;12.63;;;11.70;99.90;;;11.88;100.00;100448.41;4895850;29;20049;-69
2023/12/29 03:47:26;;;;;;;59.13;11.32;;;11.70;99.90;;;11.88;100.00;100434.28;4894607;29;20399;-68
2023/12/29 03:49:56;;;;;;;63.78;11.23;;;11.60;99.90;;;11.92;100.00;100434.22;4895870;29;20048;-69
2023/12/29 03:52:24;;;;;;;55.85;11.73;;;11.70;99.90;;;11.88;100.00;100416.63;4896054;29;20053;-69
2023/12/29 03:54:53;;;;;;;60.72;10.88;;;11.60;99.90;;;11.89;100.00;100452.81;4895760;29;20041;-69
2023/12/29 03:57:21;;;;;;;55.58;11.02;;;11.70;99.90;;;11.94;100.00;100439.47;4895749;29;20128;-70
2023/12/29 03:59:49;;;;;;;58.15;10.57;;;11.70;99.90;;;11.93;100.00;100435.06;4910442;29;20049;-69
2023/12/29 04:02:18;;;;;;;58.80;10.80;;;11.70;99.90;;;11.95;100.00;100439.44;4910097;29;20067;-69
2023/12/29 04:04:46;;;;;;;54.97;10.90;;;11.70;99.90;;;11.93;100.00;100435.94;4895563;29;20048;-70
2023/12/29 04:07:16;;;;;;;60.10;11.18;;;11.70;99.90;;;11.79;100.00;100383.19;4895611;29;20124;-68
2023/12/29 04:09:45;;;;;;;62.90;10.87;;;11.80;99.90;;;11.95;100.00;100449.16;4895571;29;20577;-68
2023/12/29 04:12:13;;;;;;;56.72;11.57;;;11.70;99.90;;;12.04;100.00;100449.88;4895326;29;20296;-70
2023/12/29 04:14:42;;;;;;;59.75;12.25;;;11.80;99.90;;;11.99;100.00;100450.88;4895389;29;20522;-68
2023/12/29 04:17:13;;;;;;;65.90;12.05;;;11.80;99.90;;;11.99;100.00;100434.97;4895306;29;20561;-67
2023/12/29 04:19:43;;;;;;;60.00;10.35;;;11.70;99.90;;;11.96;100.00;100427.97;4925811;29;20052;-68
2023/12/29 04:22:11;;;;;;;54.13;11.10;;;11.80;99.90;;;11.98;100.00;100451.78;4925492;29;20619;-68
2023/12/29 04:24:41;;;;;;;60.20;11.52;;;11.70;99.90;;;12.02;99.74;100448.19;4895372;29;20049;-69
2023/12/29 04:27:09;;;;;;;56.80;11.63;;;11.80;99.90;;;12.00;99.71;100447.34;4895537;29;20131;-69
2023/12/29 04:29:38;;;;;;;60.17;11.23;;;11.70;99.90;;;11.94;99.85;100436.84;4895214;29;20128;-70
2023/12/29 04:32:07;;;;;;;61.60;11.77;;;11.70;99.90;;;12.00;99.86;100457.94;4895598;29;20044;-68
2023/12/29 04:34:37;;;;;;;62.70;11.43;;;11.70;99.90;;;11.98;99.48;100438.53;4910076;29;20139;-69
2023/12/29 04:37:05;;;;;;;48.60;10.23;;;11.80;99.90;;;11.99;99.83;100440.28;4910135;29;20057;-70
2023/12/29 04:39:34;;;;;;;54.40;11.57;;;11.70;99.90;;;12.00;99.29;100440.22;4894301;29;20049;-68
2023/12/29 04:42:04;;;;;;;53.90;10.93;;;11.80;99.90;;;11.94;99.15;100432.41;4895454;29;20124;-69
2023/12/29 04:44:32;;;;;;;52.30;10.93;;;11.70;99.90;;;11.97;98.90;100421.75;4895372;29;20152;-69
2023/12/29 04:47:01;;;;;;;56.90;10.57;;;11.70;99.90;;;11.92;98.87;100428.91;4897133;29;20052;-68
2023/12/29 04:49:29;;;;;;;51.88;11.63;;;11.70;99.90;;;11.96;99.27;100440.34;4899080;29;20060;-70
2023/12/29 04:51:58;;;;;;;52.20;10.10;;;11.70;99.90;;;11.98;99.24;100418.19;4899153;29;20478;-69
2023/12/29 04:54:26;;;;;;;54.55;10.93;;;11.70;99.90;;;12.01;99.65;100434.06;4899065;29;20490;-69
2023/12/29 04:56:55;;;;;;;64.80;11.85;;;11.80;99.90;;;12.09;99.77;100423.31;4897842;29;20045;-69
2023/12/29 04:59:24;;;;;;;57.20;11.38;;;11.80;99.90;;;12.05;100.00;100434.88;4899093;29;20097;-69
2023/12/29 05:01:53;;;;;;;60.33;10.88;;;11.80;99.90;;;12.05;100.00;100448.13;4898957;29;20041;-69
2023/12/29 05:04:21;;;;;;;57.03;10.82;;;11.80;99.90;;;12.13;100.00;100449.75;4898966;29;20075;-69
2023/12/29 05:06:50;;;;;;;64.82;11.32;;;11.80;99.90;;;12.12;100.00;100447.09;4898886;29;20122;-68
2023/12/29 05:09:18;;;;;;;62.45;11.93;;;11.90;99.90;;;12.06;100.00;100447.25;4898560;29;20053;-70
2023/12/29 05:11:47;;;;;;;56.33;10.98;;;11.80;99.90;;;12.00;100.00;100428.78;4898555;29;20048;-70
2023/12/29 05:14:15;;;;;;;60.70;11.30;;;11.80;99.90;;;12.10;100.00;100433.88;4898460;29;20041;-70
2023/12/29 05:16:45;;;;;;;60.88;11.68;;;11.80;99.90;;;12.06;100.00;100416.28;4898405;29;20052;-72
2023/12/29 05:19:14;;;;;;;49.33;11.18;;;11.80;99.90;;;12.08;100.00;100424.22;4898375;29;20060;-69
2023/12/29 05:21:42;;;;;;;49.00;10.88;;;11.80;99.90;;;12.12;100.00;100417.94;4894243;29;20061;-69
2023/12/29 05:24:12;;;;;;;56.55;11.18;;;11.80;99.90;;;12.12;100.00;100416.16;4894503;29;20533;-71
2023/12/29 05:26:40;;;;;;;52.17;9.75;;;11.80;99.90;;;12.03;100.00;100411.03;4898866;29;20048;-70
2023/12/29 05:29:09;;;;;;;52.53;10.13;;;11.80;99.90;;;12.12;100.00;100426.78;4898190;29;20053;-69
2023/12/29 05:31:37;;;;;;;52.65;11.23;;;11.80;99.90;;;12.02;100.00;100438.44;4898716;29;20045;-71
2023/12/29 05:34:07;;;;;;;47.60;8.38;;;11.80;99.90;;;12.03;100.00;100434.00;4912803;29;20426;-69
2023/12/29 05:36:39;;;;;;;48.33;9.43;;;11.80;99.90;;;12.00;100.00;100436.72;4898001;29;20087;-69
2023/12/29 05:39:08;;;;;;;40.45;9.18;;;11.70;99.90;;;11.94;100.00;100421.81;4898123;29;20091;-70
2023/12/29 05:41:36;;;;;;;44.03;9.35;;;11.70;99.90;;;11.92;100.00;100420.97;4897989;29;20044;-71
2023/12/29 05:44:05;;;;;;;38.08;7.85;;;11.70;99.90;;;11.92;100.00;100423.63;4897747;29;20123;-69
2023/12/29 05:46:34;;;;;;;47.63;9.07;;;11.70;99.90;;;11.93;100.00;100424.47;4896832;29;20152;-70
2023/12/29 05:49:02;;;;;;;43.95;9.40;;;11.70;99.90;;;11.97;100.00;100426.16;4897701;29;20064;-70
2023/12/29 05:51:32;;;;;;;38.63;8.27;;;11.70;99.90;;;11.82;100.00;100405.22;4897846;29;20045;-69
2023/12/29 05:54:01;;;;;;;35.38;8.55;;;11.70;99.90;;;12.00;100.00;100424.34;4897801;29;20514;-69
2023/12/29 05:56:29;;;;;;;38.65;8.23;;;11.70;99.90;;;11.94;100.00;100413.88;4898288;29;20064;-71
2023/12/29 05:58:58;;;;;;;37.55;8.80;;;11.70;99.90;;;11.99;100.00;100427.00;4911485;29;20045;-69
2023/12/29 06:01:26;;;;;;;35.20;7.40;;;11.70;99.90;;;11.86;100.00;100385.72;4897577;29;20060;-71
2023/12/29 06:03:55;;;;;;;36.67;7.57;;;11.70;99.90;;;12.00;100.00;100423.47;4897559;29;20072;-69
2023/12/29 06:06:23;;;;;;;38.03;8.05;;;11.70;99.90;;;11.95;100.00;100415.59;4912234;29;20139;-70
2023/12/29 06:08:53;;;;;;;36.78;8.68;;;11.70;99.90;;;12.01;100.00;100419.91;4897507;29;20100;-70
2023/12/29 06:11:22;;;;;;;42.58;8.52;;;11.80;99.90;;;12.08;100.00;100417.13;4897600;29;20041;-69
2023/12/29 06:13:50;;;;;;;36.75;8.52;;;11.80;99.90;;;11.95;100.00;100385.56;4897407;29;20101;-70
2023/12/29 06:16:20;;;;;;;36.90;7.13;;;11.80;99.90;;;12.07;100.00;100414.50;4897417;29;20053;-69
2023/12/29 06:18:49;;;;;;;29.50;8.27;;;11.80;99.90;;;11.43;100.00;100306.97;4897497;29;20049;-69
2023/12/29 06:21:18;;;;;;;33.92;7.63;;;11.80;99.90;;;11.96;100.00;100409.41;4897482;29;20044;-69
2023/12/29 06:23:47;;;;;;;32.03;7.80;;;11.70;99.90;;;12.00;100.00;100420.84;4927459;29;20736;-70
2023/12/29 06:26:17;;;;;;;34.85;8.20;;;11.70;99.90;;;12.00;100.00;100404.94;4897299;29;20052;-69
2023/12/29 06:28:46;;;;;;;;;;;11.70;99.90;;;12.05;100.00;100403.06;4897749;29;20459;-69
2023/12/29 06:31:15;;;;;;;35.10;7.93;;;11.80;99.90;;;11.92;100.00;100398.88;4897140;29;20381;-71
2023/12/29 06:33:44;;;;;;;36.63;7.55;;;11.70;99.90;;;11.97;100.00;100416.44;4911666;29;20056;-70
2023/12/29 06:36:13;;;;;;;28.52;6.65;;;11.70;99.90;;;11.97;100.00;100410.25;4927576;29;20127;-69
2023/12/29 06:38:45;;;;;;;29.60;6.97;;;11.70;99.90;;;11.99;100.00;100416.41;4911457;29;20502;-69
2023/12/29 06:41:15;;;;;;;24.83;6.70;;;11.70;99.90;;;11.97;100.00;100420.88;4896911;29;20048;-69
2023/12/29 06:43:44;;;;;;;29.88;7.22;;;11.70;99.90;;;11.93;100.00;100397.97;4896840;29;20057;-69
2023/12/29 06:46:13;;;;;;;29.48;7.35;;;11.70;99.90;;;11.93;100.00;100409.44;4897209;29;20498;-70
2023/12/29 06:48:42;;;;;;;22.77;6.10;;;11.60;99.90;;;11.92;100.00;100396.22;4896941;29;20466;-71
2023/12/29 06:51:18;;;;;;;31.45;7.07;;;11.70;99.90;;;11.95;100.00;100404.13;4897276;29;20147;-70
2023/12/29 06:53:47;;;;;;;21.15;6.43;;;11.70;99.90;;;11.99;100.00;100416.41;4896867;29;20470;-69
2023/12/29 06:56:18;;;;;;;28.33;6.65;;;11.70;99.90;;;11.94;100.00;100410.34;4896816;29;20692;-68
2023/12/29 06:58:47;;;;;;;25.42;6.93;;;11.70;99.90;;;12.04;100.00;100411.94;4895729;29;20063;-69
2023/12/29 07:01:15;;;;;;;27.13;7.18;;;11.70;99.90;;;12.05;100.00;100417.19;4895490;29;20524;-71
2023/12/29 07:03:44;;;;;;;22.63;6.75;;;11.80;99.90;;;11.82;100.00;100392.00;4926959;29;20064;-72
2023/12/29 07:06:13;;;;;;;28.73;7.10;;;11.80;99.90;;;12.03;100.00;100428.72;4896621;29;20049;-68
2023/12/29 07:08:42;;;;;;;30.55;7.88;;;11.80;99.90;;;12.04;100.00;100423.38;4896150;29;20063;-71
2023/12/29 07:11:12;;;;;;;30.00;7.88;;;11.80;99.90;;;12.06;100.00;100423.38;4896006;29;20435;-70
2023/12/29 07:13:43;;;;;;;30.08;7.78;;;11.80;99.90;;;11.95;100.00;100385.56;4895097;29;20060;-70
2023/12/29 07:16:12;;;;;;;33.88;7.43;;;11.80;99.90;;;12.00;100.00;100399.63;4896234;29;20044;-70
2023/12/29 07:18:41;;;;;;;24.50;6.78;;;11.80;99.90;;;12.02;100.00;100408.44;4896240;29;20453;-72
2023/12/29 07:21:11;;;;;;;27.10;6.85;;;11.70;99.90;;;12.06;100.00;100403.03;4926579;29;20144;-71
2023/12/29 07:23:42;;;;;;;25.25;5.88;;;11.80;99.90;;;12.04;100.00;100409.28;4895939;29;20430;-70
2023/12/29 07:26:11;;;;;;;23.77;6.70;;;11.80;99.90;;;12.07;100.00;100406.56;4896049;29;20069;-71
2023/12/29 07:28:40;;;;;;;26.25;6.57;;;11.80;99.90;;;12.09;100.00;100412.69;4895960;29;20048;-69
2023/12/29 07:31:09;;;;;;;24.92;6.18;;;11.80;99.90;;;12.01;100.00;100382.81;4895947;29;20093;-71
2023/12/29 07:33:38;;;;;;;26.55;6.18;;;11.80;99.90;;;12.01;100.00;100407.53;4896313;29;20056;-71
2023/12/29 07:36:07;;;;;;;21.98;6.35;;;11.80;99.90;;;12.04;100.00;100409.28;4896076;29;20056;-70
2023/12/29 07:38:36;;;;;;;17.75;5.72;;;11.80;99.90;;;11.95;100.00;100417.38;4894788;29;20668;-69
2023/12/29 07:41:04;;;;;;;20.45;6.38;;;11.70;99.90;;;11.96;100.00;100414.72;4895796;29;20047;-69
2023/12/29 07:43:33;;;;;;;17.45;5.55;;;11.70;99.90;;;12.03;100.00;100418.09;4894861;29;20459;-71
2023/12/29 07:46:02;;;;;;;20.98;5.88;;;11.80;99.90;;;12.00;100.00;100404.94;4895705;29;20412;-67
2023/12/29 07:48:32;;;;;;;18.98;5.22;;;11.80;99.90;;;12.02;100.00;100411.94;4895844;29;20460;-69
2023/12/29 07:51:06;;;;;;;23.02;5.65;;;11.80;99.90;;;11.82;100.00;100403.47;4895758;29;20055;-68
2023/12/29 07:53:35;;;;;;;16.08;5.03;;;11.70;99.90;;;11.86;100.00;100407.81;4895778;29;20049;-67
2023/12/29 07:56:04;;;;;;;22.83;6.25;;;11.70;99.90;;;11.93;100.00;100414.75;4895874;29;20052;-67
2023/12/29 07:58:33;;;;;;;18.50;5.18;;;11.70;99.90;;;11.95;100.00;100418.25;4926337;29;20112;-66
2023/12/29 08:01:01;;;;;;;17.30;5.22;;;11.70;99.90;;;11.95;100.00;100427.97;4896145;29;20053;-68
2023/12/29 08:03:31;;;;;;;14.82;4.55;;;11.70;99.90;;;11.91;100.00;100407.72;4895671;29;20041;-67
2023/12/29 08:06:00;;;;;;;17.67;5.18;;;11.70;99.90;;;11.98;100.00;100422.63;4895662;29;20040;-67
2023/12/29 08:08:28;;;;;;;13.23;4.88;;;11.70;99.90;;;12.02;100.00;100427.84;4909989;29;20045;-69
2023/12/29 08:10:57;;;;;;;13.73;4.75;;;11.80;99.90;;;12.02;100.00;100406.63;4895408;29;20051;-72
2023/12/29 08:13:25;;;;;;;14.15;4.90;;;11.80;99.90;;;11.93;100.00;100419.16;4895420;29;20064;-68
2023/12/29 08:15:54;;;;;;;13.25;4.82;;;11.70;99.90;;;11.93;100.00;100416.50;4895415;29;20119;-70
2023/12/29 08:18:22;;;;;;;16.23;5.35;;;11.70;99.90;;;11.96;100.00;100427.09;4895340;29;20116;-69
2023/12/29 08:20:52;;;;;;;13.15;4.40;;;11.70;99.90;;;11.95;100.00;100428.84;4895014;29;20045;-69
2023/12/29 08:23:21;;;;;;;14.80;4.57;;;11.70;99.90;;;11.94;100.00;100442.13;4895228;29;20620;-68
2023/12/29 08:25:49;;;;;;;14.52;4.43;;;11.70;99.90;;;11.99;100.00;100427.00;4909715;29;20312;-67
2023/12/29 08:28:18;;;;;;;13.27;4.40;;;11.70;99.90;;;11.90;100.00;100437.78;4895172;29;20551;-66
2023/12/29 08:30:47;;;;;;;17.27;5.05;;;11.70;99.90;;;11.97;100.00;100432.34;4895292;29;20127;-67
2023/12/29 08:33:15;;;;;;;12.20;4.93;;;11.70;99.90;;;11.97;100.00;100452.66;4895436;29;20045;-66
2023/12/29 08:35:45;;;;;;;17.23;5.00;;;11.70;99.90;;;11.94;100.00;100428.88;4895485;29;20355;-67
2023/12/29 08:38:15;;;;;;;17.45;5.47;;;11.80;99.90;;;11.99;100.00;100446.44;4909985;29;20362;-67
2023/12/29 08:40:44;;;;;;;14.75;5.05;;;11.80;99.90;;;11.98;100.00;100443.84;4895640;29;20096;-67
2023/12/29 08:43:15;;;;;;;19.85;4.80;;;11.70;99.90;;;12.02;100.00;100440.22;4895117;29;20045;-67
2023/12/29 08:45:44;;;;;;;13.45;4.85;;;11.70;99.90;;;11.91;100.00;100432.44;4895055;29;20069;-66
2023/12/29 08:48:13;;;;;;;13.20;5.10;;;11.70;99.90;;;11.99;100.00;100441.16;4894816;29;20048;-69
2023/12/29 08:50:42;;;;;;;17.02;6.15;;;11.70;99.90;;;11.99;100.00;100445.56;4894982;29;20045;-68
2023/12/29 08:53:11;;;;;;;14.05;5.25;;;11.70;99.90;;;11.98;100.00;100441.19;4895489;29;20075;-69
2023/12/29 08:55:41;;;;;;;18.90;5.20;;;11.70;99.90;;;11.96;100.00;100441.22;4894861;29;20052;-68
2023/12/29 08:58:09;;;;;;;19.13;5.00;;;11.70;99.90;;;11.89;100.00;100436.91;4894885;29;20075;-68
2023/12/29 09:00:38;;;;;;;19.60;5.50;;;11.70;99.90;;;12.03;100.00;100441.97;4894937;29;20296;-69
2023/12/29 09:03:06;;;;;;;15.95;5.32;;;11.80;99.90;;;12.01;100.00;100449.06;4894935;29;20574;-67
2023/12/29 09:05:35;;;;;;;17.85;5.07;;;11.80;99.90;;;11.99;100.00;100442.91;4895336;29;20052;-66
2023/12/29 09:08:04;;;;;;;13.13;5.22;;;11.80;99.90;;;12.05;100.00;100449.00;4894957;29;20123;-68
2023/12/29 09:10:33;;;;;;;16.10;4.93;;;11.80;99.90;;;12.06;100.00;100440.13;4894849;29;20055;-67
2023/12/29 09:13:02;;;;;;;20.58;5.65;;;11.80;99.90;;;12.05;100.00;100471.97;4894925;29;20048;-67
2023/12/29 09:15:31;;;;;;;16.05;5.90;;;11.80;99.90;;;12.09;100.00;100457.78;4895051;29;20045;-68
2023/12/29 09:17:59;;;;;;;19.33;5.78;;;11.80;99.90;;;12.15;100.00;100471.81;4894851;29;20057;-67
2023/12/29 09:20:28;;;;;;;17.05;4.93;;;11.90;99.90;;;12.20;100.00;100464.63;4895084;29;20076;-67
2023/12/29 09:22:58;;;;;;;19.15;5.40;;;11.90;99.90;;;12.23;100.00;100467.22;4894648;29;20139;-68
2023/12/29 09:25:26;;;;;;;19.67;5.75;;;11.90;99.90;;;12.21;100.00;100470.81;4894731;29;20073;-67
2023/12/29 09:27:55;;;;;;;26.15;5.75;;;12.00;99.90;;;12.14;100.00;100470.03;4894632;29;20097;-67
2023/12/29 09:30:25;;;;;;;15.10;5.75;;;11.90;99.90;;;12.21;100.00;100476.13;4895183;29;20088;-68
2023/12/29 09:32:53;;;;;;;26.00;6.50;;;11.90;99.90;;;12.23;100.00;100477.81;4895660;29;20442;-67
2023/12/29 09:35:22;;;;;;;24.35;6.13;;;12.00;99.90;;;12.29;100.00;100476.88;4897895;29;20131;-78
2023/12/29 09:37:50;;;;;;;13.57;4.65;;;12.00;99.90;;;12.38;100.00;100487.31;4896700;29;20040;-73
2023/12/29 09:40:19;;;;;;;20.55;5.97;;;12.10;99.90;;;12.47;100.00;100492.44;4897853;29;20049;-72
2023/12/29 09:42:49;;;;;;;16.27;5.57;;;12.20;99.90;;;12.47;100.00;100481.81;4897776;29;20052;-79
2023/12/29 09:45:25;;;;;;;21.53;6.37;;;12.20;99.90;;;12.48;100.00;100492.44;4896891;29;20062;-65
2023/12/29 09:47:54;;;;;;;14.80;5.45;;;12.20;99.90;;;12.38;100.00;100480.22;4897779;29;20288;-66
2023/12/29 09:50:23;;;;;;;26.60;6.20;;;12.20;99.90;;;12.38;100.00;100482.88;4897624;29;20048;-67
2023/12/29 09:52:54;;;;;;;21.00;6.15;;;12.10;99.90;;;12.37;100.00;100486.41;4897691;29;20057;-68
2023/12/29 09:55:24;;;;;;;24.60;5.80;;;12.10;99.90;;;12.32;100.00;100511.28;4897702;29;20056;-68
2023/12/29 09:57:53;;;;;;;23.70;5.93;;;12.10;99.90;;;12.40;100.00;100512.03;4898054;29;20052;-68
2023/12/29 10:00:22;;;;;;;22.85;5.70;;;12.10;99.90;;;12.41;100.00;100487.25;4897606;29;20045;-66
2023/12/29 10:02:54;;;;;;;26.65;6.55;;;12.20;99.90;;;12.46;100.00;100498.66;4897631;29;20056;-68
2023/12/29 10:05:22;;;;;;;34.13;6.97;;;12.20;99.90;;;12.55;100.00;100509.09;4897796;29;20375;-66
2023/12/29 10:07:52;;;;;;;32.88;6.80;;;12.30;99.90;;;12.42;100.00;100484.59;4897664;29;20483;-66